Time;durP1;ratioP1;P1;durP2;ratioP2;P2;SDS_P1;SDS_P2;PMS_P1;PMS_P2;Temp;Humidity;BMP_temperature;BMP_pressure;BME280_temperature;BME280_humidity;BME280_pressure;Samples;Min_cycle;Max_cycle;Signal;HPM_P1;HPM_P2
2022/04/15 00:00:31;;;;;;;11.10;6.33;;;;;;;12.11;100.00;96711.25;5023384;28;20049;-79
2022/04/15 00:02:57;;;;;;;17.20;10.80;;;;;;;12.01;100.00;96706.91;5015372;28;20025;-80
2022/04/15 00:05:40;;;;;;;15.23;9.23;;;;;;;12.02;100.00;96711.19;5029766;28;22113;-79
2022/04/15 00:08:07;;;;;;;12.00;7.70;;;;;;;11.90;100.00;96716.88;5014720;28;20126;-79
2022/04/15 00:10:33;;;;;;;9.13;5.57;;;;;;;12.07;100.00;96718.63;5006206;28;20080;-79
2022/04/15 00:13:00;;;;;;;10.00;6.13;;;;;;;11.78;100.00;96718.94;5024394;28;20099;-79
2022/04/15 00:15:27;;;;;;;9.27;6.33;;;;;;;11.87;100.00;96727.72;5022480;28;20112;-78
2022/04/15 00:17:53;;;;;;;10.73;6.40;;;;;;;11.78;100.00;96722.38;5006978;28;20736;-79
2022/04/15 00:20:20;;;;;;;9.90;6.27;;;;;;;11.60;100.00;96728.66;5010202;28;20050;-78
2022/04/15 00:22:46;;;;;;;10.57;7.13;;;;;;;11.52;100.00;96730.25;5005924;28;20032;-78
2022/04/15 00:25:12;;;;;;;11.63;6.63;;;;;;;11.73;100.00;96735.19;5024314;28;20036;-78
2022/04/15 00:27:39;;;;;;;9.43;5.80;;;;;;;11.71;100.00;96729.25;5021639;28;20032;-79
2022/04/15 00:30:09;;;;;;;11.33;6.00;;;;;;;11.64;100.00;96730.03;5026076;28;20061;-79
2022/04/15 00:32:35;;;;;;;8.80;5.57;;;;;;;11.62;100.00;96727.53;5025368;28;20032;-79
2022/04/15 00:35:02;;;;;;;10.63;6.13;;;;;;;11.68;100.00;96721.66;5021876;28;20033;-78
2022/04/15 00:37:28;;;;;;;9.03;6.10;;;;;;;11.71;100.00;96731.88;5031880;28;20200;-79
2022/04/15 00:39:54;;;;;;;12.00;6.23;;;;;;;11.74;100.00;96715.78;5027478;28;20205;-78
2022/04/15 00:42:22;;;;;;;10.50;6.23;;;;;;;11.67;100.00;96713.88;5037268;28;20033;-79
2022/04/15 00:44:53;;;;;;;10.53;5.47;;;;;;;11.70;100.00;96706.53;5007286;28;20029;-79
2022/04/15 00:47:39;;;;;;;12.63;6.67;;;;;;;11.62;100.00;96698.56;5022308;28;20051;-78
2022/04/15 00:50:05;;;;;;;9.17;6.17;;;;;;;11.57;100.00;96703.47;5039740;28;20043;-79
2022/04/15 00:52:39;;;;;;;10.60;6.27;;;;;;;11.49;100.00;96714.75;5024607;28;20029;-79
2022/04/15 00:55:06;;;;;;;11.97;7.27;;;;;;;11.54;100.00;96709.88;5022632;28;20456;-79
2022/04/15 00:57:33;;;;;;;9.07;5.73;;;;;;;11.53;100.00;96718.72;5022263;28;20025;-79
2022/04/15 01:00:03;;;;;;;9.60;6.03;;;;;;;11.48;100.00;96726.28;5017271;28;20029;-80
2022/04/15 01:02:29;;;;;;;8.90;5.67;;;;;;;11.59;100.00;96717.31;5003621;28;20167;-79
2022/04/15 01:04:56;;;;;;;11.20;6.60;;;;;;;11.60;100.00;96713.69;5023320;28;20410;-79
2022/04/15 01:07:32;;;;;;;9.27;5.90;;;;;;;11.58;100.00;96723.56;5021958;28;20063;-79
2022/04/15 01:09:59;;;;;;;9.03;6.37;;;;;;;11.56;100.00;96718.44;5024385;28;20032;-80
2022/04/15 01:12:28;;;;;;;8.43;5.73;;;;;;;11.59;100.00;96719.09;5020316;28;20076;-78
2022/04/15 01:14:59;;;;;;;9.53;6.07;;;;;;;11.56;100.00;96718.44;5009597;28;20032;-79
2022/04/15 01:17:27;;;;;;;11.77;6.47;;;;;;;11.58;100.00;96715.66;5040883;28;20553;-78
2022/04/15 01:19:54;;;;;;;8.97;5.83;;;;;;;11.46;100.00;96720.31;5026015;28;20573;-79
2022/04/15 01:22:23;;;;;;;9.53;5.97;;;;;;;11.36;100.00;96722.22;5021490;28;20083;-78
2022/04/15 01:24:49;;;;;;;10.67;6.77;;;;;;;11.45;100.00;96723.13;5021909;28;20405;-79
2022/04/15 01:27:28;;;;;;;10.57;6.43;;;;;;;11.36;100.00;96732.75;5020932;28;20029;-79
2022/04/15 01:29:54;;;;;;;9.00;5.93;;;;;;;11.37;100.00;96729.16;5007656;28;20038;-78
2022/04/15 01:32:20;;;;;;;9.50;6.13;;;;;;;11.14;100.00;96743.75;5041062;28;20877;-81
2022/04/15 01:34:45;;;;;;;10.87;6.27;;;;;;;11.18;100.00;96731.94;5022340;28;20079;-78
2022/04/15 01:37:15;;;;;;;12.73;6.80;;;;;;;11.13;100.00;96742.09;5005121;28;20044;-78
2022/04/15 01:39:42;;;;;;;11.63;6.47;;;;;;;11.11;100.00;96744.06;5029755;28;20437;-79
2022/04/15 01:42:12;;;;;;;9.63;5.37;;;;;;;11.18;100.00;96735.41;5023592;28;20040;-79
2022/04/15 01:44:43;;;;;;;9.20;5.97;;;;;;;11.13;100.00;96736.81;5020460;28;20466;-78
2022/04/15 01:47:09;;;;;;;10.17;6.00;;;;;;;11.16;100.00;96733.88;5026382;28;20079;-78
2022/04/15 01:49:35;;;;;;;10.00;6.60;;;;;;;11.18;100.00;96730.13;5021721;28;20028;-79
2022/04/15 01:52:01;;;;;;;9.90;6.37;;;;;;;11.19;100.00;96730.97;5008107;28;20115;-79
2022/04/15 01:54:28;;;;;;;10.90;6.30;;;;;;;11.09;100.00;96739.75;5015679;28;20100;-79
2022/04/15 01:56:55;;;;;;;11.67;6.30;;;;;;;11.12;100.00;96732.53;5051783;28;20570;-79
2022/04/15 01:59:21;;;;;;;8.97;6.17;;;;;;;11.14;100.00;96728.78;5007311;28;20493;-79
2022/04/15 02:01:47;;;;;;;11.63;6.70;;;;;;;11.17;100.00;96725.03;5005550;28;20037;-78
2022/04/15 02:04:13;;;;;;;11.03;6.43;;;;;;;11.09;100.00;96720.50;5007050;28;20428;-78
2022/04/15 02:06:38;;;;;;;12.20;6.67;;;;;;;11.11;100.00;96729.09;5002630;28;20037;-79
2022/04/15 02:09:04;;;;;;;10.90;6.90;;;;;;;11.19;100.00;96721.25;5008084;28;20593;-79
2022/04/15 02:11:30;;;;;;;11.47;7.60;;;;;;;11.14;100.00;96723.53;5007582;28;20025;-79
2022/04/15 02:13:55;;;;;;;8.77;6.20;;;;;;;11.09;100.00;96723.97;5026270;28;20052;-78
2022/04/15 02:16:21;;;;;;;11.30;5.90;;;;;;;10.99;100.00;96731.09;5022997;28;20694;-78
2022/04/15 02:18:47;;;;;;;9.73;6.30;;;;;;;11.08;100.00;96734.66;5040663;28;20021;-79
2022/04/15 02:21:12;;;;;;;10.90;6.30;;;;;;;11.06;100.00;96737.41;5021876;28;20116;-79
2022/04/15 02:23:38;;;;;;;12.13;6.70;;;;;;;11.04;100.00;96744.66;5020819;28;20048;-81
2022/04/15 02:26:06;;;;;;;8.40;6.17;;;;;;;11.01;100.00;96742.31;4999479;28;20041;-79
2022/04/15 02:28:32;;;;;;;9.70;5.60;;;;;;;10.98;100.00;96739.97;5019170;28;20112;-79
2022/04/15 02:30:57;;;;;;;9.33;5.70;;;;;;;10.99;100.00;96736.38;5039089;28;20084;-79
2022/04/15 02:33:23;;;;;;;12.50;6.13;;;;;;;10.96;100.00;96741.91;5005225;28;20129;-79
2022/04/15 02:35:49;;;;;;;10.40;6.17;;;;;;;10.85;100.00;96732.44;5022358;28;20029;-79
2022/04/15 02:38:15;;;;;;;10.63;6.00;;;;;;;10.80;100.00;96732.06;5008291;28;20439;-79
2022/04/15 02:40:42;;;;;;;11.10;6.50;;;;;;;10.76;100.00;96732.50;5022831;28;20112;-78
2022/04/15 02:43:09;;;;;;;10.13;6.70;;;;;;;10.75;100.00;96733.50;5023156;28;20938;-79
2022/04/15 02:45:35;;;;;;;8.73;5.90;;;;;;;10.67;100.00;96733.41;5040165;28;20021;-78
2022/04/15 02:48:01;;;;;;;9.37;6.03;;;;;;;10.59;100.00;96740.22;5039715;28;20029;-79
2022/04/15 02:50:28;;;;;;;12.00;6.23;;;;;;;10.57;100.00;96736.91;5032754;28;20903;-78
2022/04/15 02:52:54;;;;;;;11.13;6.47;;;;;;;10.56;100.00;96742.31;5023747;28;20032;-78
2022/04/15 02:55:20;;;;;;;13.50;6.90;;;;;;;10.42;100.00;96748.06;5019533;28;20060;-78
2022/04/15 02:57:46;;;;;;;10.00;7.00;;;;;;;10.32;100.00;96748.91;5025096;28;20047;-79
2022/04/15 03:00:14;;;;;;;10.47;6.50;;;;;;;10.20;100.00;96749.25;5009016;28;20334;-78
2022/04/15 03:02:39;;;;;;;10.97;5.93;;;;;;;10.06;100.00;96756.63;5019002;28;20029;-78
2022/04/15 03:05:09;;;;;;;9.53;5.70;;;;;;;10.11;100.00;96746.47;5023170;28;20044;-79
2022/04/15 03:07:38;;;;;;;11.03;5.90;;;;;;;10.10;100.00;96755.34;5024261;28;20076;-79
2022/04/15 03:10:06;;;;;;;10.80;6.60;;;;;;;10.02;100.00;96749.97;5026773;28;20038;-78
2022/04/15 03:12:35;;;;;;;11.33;7.07;;;;;;;10.05;100.00;96757.56;5037927;28;20025;-79
2022/04/15 03:15:02;;;;;;;10.50;7.20;;;;;;;9.97;100.00;96751.38;5037189;28;20029;-78
2022/04/15 03:17:28;;;;;;;10.20;6.27;;;;;;;9.85;100.00;96758.59;5003404;28;21285;-79
2022/04/15 03:19:54;;;;;;;12.47;6.80;;;;;;;9.83;100.00;96752.66;5022353;28;20033;-79
2022/04/15 03:22:20;;;;;;;11.77;6.70;;;;;;;9.78;100.00;96762.75;5021656;28;20045;-78
2022/04/15 03:24:47;;;;;;;10.07;7.00;;;;;;;9.81;100.00;96760.66;5018796;28;20033;-79
2022/04/15 03:27:13;;;;;;;15.17;7.03;;;;;;;9.84;100.00;96759.56;5041752;28;20060;-79
2022/04/15 03:29:38;;;;;;;11.13;6.77;;;;;;;9.84;100.00;96755.13;5020178;28;20498;-78
2022/04/15 03:32:04;;;;;;;10.77;6.83;;;;;;;9.71;100.00;96759.88;5004285;28;20044;-79
2022/04/15 03:34:30;;;;;;;10.63;6.53;;;;;;;9.70;100.00;96760.03;5017929;28;20071;-78
2022/04/15 03:36:56;;;;;;;9.67;6.33;;;;;;;9.67;100.00;96769.00;5006757;28;20029;-78
2022/04/15 03:39:21;;;;;;;13.10;7.50;;;;;;;9.50;100.00;96772.34;5044811;28;20079;-78
2022/04/15 03:41:47;;;;;;;12.23;7.80;;;;;;;9.57;100.00;96769.00;5023953;28;20036;-79
2022/04/15 03:44:13;;;;;;;11.30;7.10;;;;;;;9.59;100.00;96768.84;5043673;28;20028;-79
2022/04/15 03:46:39;;;;;;;11.70;7.53;;;;;;;9.61;100.00;96774.81;5021983;28;20475;-78
2022/04/15 03:49:05;;;;;;;12.13;6.83;;;;;;;9.60;100.00;96775.78;5009842;28;20032;-78
2022/04/15 03:51:31;;;;;;;12.13;7.53;;;;;;;9.49;100.00;96768.88;5026239;28;20044;-78
2022/04/15 03:53:56;;;;;;;13.07;7.33;;;;;;;9.53;100.00;96770.25;5007324;28;20401;-78
2022/04/15 03:56:22;;;;;;;11.90;8.00;;;;;;;9.51;100.00;96774.81;5012623;28;20037;-78
2022/04/15 03:58:48;;;;;;;10.27;7.10;;;;;;;9.53;100.00;96775.50;5024904;28;20024;-80
2022/04/15 04:01:14;;;;;;;14.63;7.63;;;;;;;9.31;100.00;96773.16;5023761;28;20044;-80
2022/04/15 04:03:40;;;;;;;13.33;8.70;;;;;;;9.40;100.00;96777.59;5008263;28;20033;-79
2022/04/15 04:06:06;;;;;;;10.70;7.20;;;;;;;9.45;100.00;96772.75;5012270;28;20033;-79
2022/04/15 04:08:31;;;;;;;10.90;7.27;;;;;;;9.53;100.00;96772.88;5005400;28;20032;-79
2022/04/15 04:10:57;;;;;;;13.67;7.60;;;;;;;9.55;100.00;96770.94;5024228;28;20040;-80
2022/04/15 04:13:23;;;;;;;14.07;8.93;;;;;;;9.53;100.00;96770.25;5022688;28;20033;-79
2022/04/15 04:15:49;;;;;;;12.20;7.90;;;;;;;9.58;100.00;96777.72;5006783;28;20041;-79
2022/04/15 04:18:17;;;;;;;15.57;9.50;;;;;;;9.52;100.00;96773.84;5008430;28;20029;-79
2022/04/15 04:20:43;;;;;;;16.00;7.53;;;;;;;9.54;100.00;96771.91;5026496;28;20560;-80
2022/04/15 04:23:09;;;;;;;12.67;8.47;;;;;;;9.56;100.00;96775.25;5037367;28;20036;-79
2022/04/15 04:25:35;;;;;;;14.70;9.13;;;;;;;9.56;100.00;96777.88;5042309;28;20568;-79
2022/04/15 04:28:01;;;;;;;14.97;9.27;;;;;;;9.60;100.00;96781.03;5024171;28;20778;-80
2022/04/15 04:30:26;;;;;;;13.27;9.13;;;;;;;9.60;100.00;96783.66;5012477;28;20771;-79
2022/04/15 04:32:52;;;;;;;14.43;9.33;;;;;;;9.57;100.00;96784.75;5018758;28;21027;-80
2022/04/15 04:35:21;;;;;;;14.23;9.00;;;;;;;9.59;100.00;96782.84;5023887;28;20517;-80
2022/04/15 04:37:47;;;;;;;17.63;11.70;;;;;;;9.60;100.00;96789.75;5022945;28;20030;-79
2022/04/15 04:40:14;;;;;;;20.00;14.60;;;;;;;9.50;100.00;96794.16;5039319;28;20742;-79
2022/04/15 04:42:40;;;;;;;12.17;9.07;;;;;;;9.43;100.00;96803.56;5021432;28;20037;-79
2022/04/15 04:45:07;;;;;;;12.17;8.27;;;;;;;9.43;100.00;96803.56;5003171;28;20036;-79
2022/04/15 04:47:33;;;;;;;13.67;9.23;;;;;;;9.37;100.00;96804.13;5012518;28;20072;-79
2022/04/15 04:50:01;;;;;;;13.63;9.60;;;;;;;9.39;100.00;96808.25;5021814;28;20113;-79
2022/04/15 04:52:27;;;;;;;15.07;8.97;;;;;;;9.54;100.00;96805.22;5041780;28;20055;-79
2022/04/15 04:54:52;;;;;;;14.40;8.30;;;;;;;9.59;100.00;96806.47;5022586;28;20152;-79
2022/04/15 04:57:18;;;;;;;12.57;8.40;;;;;;;9.66;100.00;96807.56;5023836;28;20053;-79
2022/04/15 04:59:44;;;;;;;15.70;10.10;;;;;;;9.78;100.00;96805.59;5021057;28;20040;-79
2022/04/15 05:02:12;;;;;;;15.10;8.13;;;;;;;9.88;100.00;96813.47;5023014;28;20095;-80
2022/04/15 05:04:41;;;;;;;14.83;8.23;;;;;;;9.93;100.00;96811.28;5035775;28;20021;-79
2022/04/15 05:07:07;;;;;;;10.83;7.63;;;;;;;10.03;100.00;96808.63;5024614;28;20347;-79
2022/04/15 05:09:33;;;;;;;13.27;8.17;;;;;;;10.17;100.00;96808.19;5017381;28;20524;-80
2022/04/15 05:11:59;;;;;;;14.57;8.53;;;;;;;10.25;100.00;96810.06;5038596;28;20033;-79
2022/04/15 05:14:24;;;;;;;11.20;7.77;;;;;;;10.29;100.00;96811.47;5023651;28;20898;-81
2022/04/15 05:16:50;;;;;;;15.00;8.77;;;;;;;10.53;100.00;96808.34;5039891;28;20386;-79
2022/04/15 05:19:16;;;;;;;16.73;8.10;;;;;;;10.75;100.00;96804.53;5027420;28;20489;-79
2022/04/15 05:21:41;;;;;;;11.93;7.83;;;;;;;10.95;100.00;96806.06;5022147;28;20063;-79
2022/04/15 05:24:08;;;;;;;14.13;7.60;;;;;;;11.13;100.00;96813.97;5028194;28;20120;-79
2022/04/15 05:26:35;;;;;;;11.83;7.93;;;;;;;11.36;100.00;96803.84;5037177;28;20029;-79
2022/04/15 05:29:02;;;;;;;18.33;13.00;;;;;;;11.60;100.00;96810.31;5031164;28;20037;-79
2022/04/15 05:31:28;;;;;;;25.83;19.90;;;;;;;11.67;100.00;96814.84;5033642;28;20035;-79
2022/04/15 05:33:53;;;;;;;12.00;8.43;;;;;;;11.35;100.00;96819.81;5039486;28;20033;-79
2022/04/15 05:36:19;;;;;;;14.43;8.33;;;;;;;11.70;100.00;96821.59;5028865;28;20209;-80
2022/04/15 05:38:45;;;;;;;14.70;9.10;;;;;;;12.08;100.00;96817.84;5033559;28;20410;-79
2022/04/15 05:41:10;;;;;;;16.57;9.77;;;;;;;12.15;100.00;96829.41;5041608;28;20056;-79
2022/04/15 05:43:37;;;;;;;19.50;10.40;;;;;;;11.88;100.00;96833.00;5020793;28;20134;-79
2022/04/15 05:46:03;;;;;;;18.17;9.90;;;;;;;11.69;100.00;96841.84;5032870;28;20036;-79
2022/04/15 05:48:29;;;;;;;14.27;7.90;;;;;;;11.61;100.00;96840.97;5048210;28;20041;-78
2022/04/15 05:50:55;;;;;;;13.03;7.77;;;;;;;11.66;100.00;96838.69;5037662;28;20078;-79
2022/04/15 05:53:20;;;;;;;16.10;9.47;;;;;;;11.76;100.00;96836.81;5042961;28;20075;-79
2022/04/15 05:55:46;;;;;;;15.23;10.57;;;;;;;11.87;100.00;96836.63;5018562;28;20053;-79
2022/04/15 05:58:12;;;;;;;13.77;9.17;;;;;;;12.45;100.00;96836.03;5019916;28;20490;-79
2022/04/15 06:00:38;;;;;;;11.50;7.87;;;;;;;12.73;100.00;96833.19;5067661;28;20344;-79
2022/04/15 06:03:04;;;;;;;15.00;8.80;;;;;;;13.10;100.00;96835.50;5038862;28;20036;-80
2022/04/15 06:05:30;;;;;;;13.13;8.30;;;;;;;13.30;100.00;96836.06;5026653;28;20213;-79
2022/04/15 06:07:56;;;;;;;14.03;8.93;;;;;;;13.18;100.00;96840.81;5029336;28;20055;-80
2022/04/15 06:10:22;;;;;;;16.67;9.83;;;;;;;13.05;100.00;96845.72;5038118;28;20037;-79
2022/04/15 06:13:06;;;;;;;16.47;9.03;;;;;;;12.97;100.00;96849.13;5035868;28;20054;-80
2022/04/15 06:15:32;;;;;;;13.20;8.37;;;;;;;13.16;100.00;96853.34;5027397;28;20031;-81
2022/04/15 06:18:02;;;;;;;11.37;7.47;;;;;;;12.97;100.00;96857.06;5022030;28;20033;-80
2022/04/15 06:20:29;;;;;;;10.07;6.93;;;;;;;12.72;100.00;96852.66;5033951;28;20115;-80
2022/04/15 06:22:55;;;;;;;15.10;7.80;;;;;;;12.80;100.00;96851.88;5019214;28;20028;-80
2022/04/15 06:25:21;;;;;;;11.30;7.07;;;;;;;13.16;100.00;96855.16;5015671;28;20445;-80
2022/04/15 06:27:47;;;;;;;9.60;6.63;;;;;;;14.00;100.00;96850.72;5034798;28;20055;-79
2022/04/15 06:30:12;;;;;;;13.63;7.03;;;;;;;14.10;100.00;96851.38;5035589;28;20041;-80
2022/04/15 06:32:38;;;;;;;9.80;6.67;;;;;;;14.17;100.00;96848.88;5041400;28;20033;-80
2022/04/15 06:35:06;;;;;;;8.50;5.67;;;;;;;14.65;100.00;96842.69;5047213;28;20087;-80
2022/04/15 06:37:32;;;;;;;17.70;11.17;;;;;;;15.10;100.00;96838.59;5020536;28;20047;-80
2022/04/15 06:39:58;;;;;;;9.50;6.70;;;;;;;15.17;100.00;96839.53;5013381;28;20025;-81
2022/04/15 06:42:26;;;;;;;10.27;6.53;;;;;;;14.89;100.00;96841.81;5033942;28;20043;-80
2022/04/15 06:44:52;;;;;;;11.63;6.57;;;;;;;15.51;100.00;96827.75;5018634;28;20045;-80
2022/04/15 06:47:18;;;;;;;11.97;7.13;;;;;;;16.23;94.56;96828.22;5033021;28;20025;-81
2022/04/15 06:49:47;;;;;;;9.10;6.30;;;;;;;15.83;98.14;96832.03;5026672;28;20055;-80
2022/04/15 06:52:14;;;;;;;13.70;6.07;;;;;;;15.61;98.34;96844.25;5015338;28;20041;-82
2022/04/15 06:54:40;;;;;;;8.20;6.00;;;;;;;16.39;93.95;96834.38;5009732;28;20764;-80
2022/04/15 06:57:12;;;;;;;9.27;6.20;;;;;;;16.71;91.20;96836.69;5038976;28;20028;-80
2022/04/15 06:59:38;;;;;;;7.82;5.18;;;;;;;16.68;89.96;96831.75;5032096;28;20082;-79
2022/04/15 07:02:05;;;;;;;8.52;5.70;;;;;;;16.83;89.74;96836.25;5051866;28;20029;-80
2022/04/15 07:04:32;;;;;;;8.68;5.40;;;;;;;17.04;87.00;96835.53;5050251;28;20040;-81
2022/04/15 07:06:58;;;;;;;8.82;5.38;;;;;;;17.37;82.78;96830.59;5025168;28;20041;-81
2022/04/15 07:09:24;;;;;;;8.82;4.63;;;;;;;17.44;81.08;96842.97;5049525;28;20082;-80
2022/04/15 07:11:50;;;;;;;9.35;4.88;;;;;;;17.16;84.04;96840.16;5044714;28;20562;-80
2022/04/15 07:14:17;;;;;;;10.70;4.97;;;;;;;18.16;76.62;96837.75;5012824;28;20028;-81
2022/04/15 07:16:43;;;;;;;6.95;4.80;;;;;;;18.08;79.56;96838.72;5033589;28;20399;-81
2022/04/15 07:19:08;;;;;;;7.22;4.57;;;;;;;18.22;77.88;96835.16;5047774;28;20044;-80
2022/04/15 07:21:35;;;;;;;7.88;4.72;;;;;;;18.30;74.95;96826.19;5031543;28;20052;-81
2022/04/15 07:24:01;;;;;;;7.65;4.90;;;;;;;18.32;74.48;96830.31;5020317;28;20036;-81
2022/04/15 07:26:27;;;;;;;9.63;4.47;;;;;;;18.79;71.63;96836.00;5033648;28;20091;-80
2022/04/15 07:28:52;;;;;;;6.60;4.57;;;;;;;18.35;72.92;96829.13;5047912;28;20036;-80
2022/04/15 07:31:18;;;;;;;9.02;4.80;;;;;;;18.50;72.39;96837.81;5019065;28;20130;-80
2022/04/15 07:33:46;;;;;;;8.60;5.82;;;;;;;18.68;73.05;96836.47;5048227;28;20029;-80
2022/04/15 07:39:03;;;;;;;8.23;4.00;;;;;;;19.56;66.00;96829.56;5029203;28;20029;-80
2022/04/15 07:41:28;;;;;;;6.63;4.07;;;;;;;19.76;63.28;96834.97;5034770;28;20044;-80
2022/04/15 07:43:54;;;;;;;5.90;3.70;;;;;;;20.03;61.00;96830.50;5019777;28;20029;-78
2022/04/15 07:46:20;;;;;;;7.50;3.70;;;;;;;20.36;59.20;96827.81;5012665;28;20438;-78
2022/04/15 07:48:45;;;;;;;9.65;4.35;;;;;;;20.76;58.04;96821.63;5032353;28;20544;-79
2022/04/15 07:51:11;;;;;;;16.33;13.13;;;;;;;20.35;55.68;96830.69;5021320;28;20474;-80
2022/04/15 07:53:37;;;;;;;8.02;3.90;;;;;;;20.94;52.92;96825.28;5037425;28;20039;-79
2022/04/15 07:56:03;;;;;;;4.90;2.83;;;;;;;20.77;52.23;96828.63;5031828;28;20033;-78
2022/04/15 07:58:29;;;;;;;5.55;3.13;;;;;;;20.76;50.76;96822.47;5052110;28;20151;-78
2022/04/15 08:00:55;;;;;;;6.75;2.90;;;;;;;20.41;52.43;96828.00;5016675;28;20385;-81
2022/04/15 08:03:24;;;;;;;4.43;2.20;;;;;;;20.71;48.54;96832.94;5057374;28;20025;-81
2022/04/15 08:05:49;;;;;;;4.15;1.95;;;;;;;20.61;46.10;96830.69;5026449;28;20496;-78
2022/04/15 08:08:15;;;;;;;5.18;2.10;;;;;;;21.13;48.09;96828.13;5012184;28;20032;-78
2022/04/15 08:10:41;;;;;;;4.38;2.40;;;;;;;21.49;44.59;96822.22;5016611;28;20052;-78
2022/04/15 08:13:07;;;;;;;6.10;2.25;;;;;;;21.87;43.04;96829.44;5031489;28;20492;-78
2022/04/15 08:15:33;;;;;;;5.15;2.08;;;;;;;21.76;44.60;96833.59;5031785;28;20514;-79
2022/04/15 08:18:00;;;;;;;7.03;2.63;;;;;;;21.00;44.89;96828.16;5024963;28;20102;-78
2022/04/15 08:20:25;;;;;;;4.40;2.28;;;;;;;21.56;44.28;96833.72;5020226;28;20042;-79
2022/04/15 08:22:51;;;;;;;5.38;3.35;;;;;;;21.75;45.07;96828.47;5012614;28;20033;-78
2022/04/15 08:25:16;;;;;;;6.20;2.80;;;;;;;21.32;46.33;96840.56;5027078;28;20505;-79
2022/04/15 08:27:42;;;;;;;7.93;4.00;;;;;;;21.74;47.45;96830.31;5027876;28;20066;-78
2022/04/15 08:30:08;;;;;;;6.03;3.40;;;;;;;21.56;46.73;96832.88;5039583;28;20033;-78
2022/04/15 08:32:35;;;;;;;8.18;4.20;;;;;;;21.60;46.01;96826.09;5032689;28;20028;-79
2022/04/15 08:35:02;;;;;;;6.35;4.25;;;;;;;21.01;46.37;96835.16;5032414;28;20021;-78
2022/04/15 08:37:28;;;;;;;8.30;4.57;;;;;;;21.60;47.00;96832.25;5031525;28;20025;-78
2022/04/15 08:39:54;;;;;;;7.07;4.13;;;;;;;20.49;49.71;96843.84;5010683;28;20031;-80
2022/04/15 08:42:20;;;;;;;8.43;5.43;;;;;;;19.49;52.58;96850.06;5053510;28;20048;-80
2022/04/15 08:44:54;;;;;;;7.50;4.90;;;;;;;19.45;51.61;96846.97;5056670;28;20389;-78
2022/04/15 08:47:20;;;;;;;7.18;4.60;;;;;;;18.89;55.04;96852.44;5023137;28;20029;-79
2022/04/15 08:49:47;;;;;;;8.20;4.10;;;;;;;18.97;55.26;96852.28;5017208;28;20111;-81
2022/04/15 08:52:16;;;;;;;7.55;4.65;;;;;;;18.74;56.91;96854.41;5030564;28;20060;-81
2022/04/15 08:54:43;;;;;;;8.18;4.82;;;;;;;19.00;54.47;96854.56;5032086;28;20029;-82
2022/04/15 08:57:09;;;;;;;6.88;4.13;;;;;;;20.00;51.95;96854.91;5034454;28;20086;-80
2022/04/15 08:59:34;;;;;;;6.97;4.40;;;;;;;19.13;53.99;96852.97;5046921;28;20115;-81
2022/04/15 09:02:00;;;;;;;6.22;4.05;;;;;;;18.98;52.19;96859.28;5036191;28;20037;-81
2022/04/15 09:04:26;;;;;;;6.38;4.00;;;;;;;18.67;53.99;96853.50;5062909;28;20028;-81
2022/04/15 09:06:56;;;;;;;10.10;4.55;;;;;;;19.04;53.15;96855.78;5060108;28;20032;-80
2022/04/15 09:09:29;;;;;;;7.90;4.18;;;;;;;18.44;54.00;96859.88;5066440;28;20033;-81
2022/04/15 09:11:56;;;;;;;;;;;;;;;18.71;54.68;96854.75;5049822;28;20075;-80
2022/04/15 09:14:22;;;;;;;6.97;4.55;;;;;;;18.44;55.61;96857.22;5045880;28;19925;-81
2022/04/15 09:16:48;;;;;;;8.18;4.55;;;;;;;19.01;54.76;96847.38;5059802;28;20375;-81
2022/04/15 09:19:16;;;;;;;6.35;4.38;;;;;;;18.72;55.52;96862.59;5043858;28;20183;-80
2022/04/15 09:21:54;;;;;;;8.32;5.55;;;;;;;20.22;50.95;96842.19;5021602;28;20086;-80
2022/04/15 09:24:33;;;;;;;9.25;6.45;;;;;;;21.78;46.94;96844.91;5028873;28;20064;-81
2022/04/15 09:27:06;;;;;;;10.50;6.63;;;;;;;22.19;44.51;96845.50;5060280;28;20037;-82
2022/04/15 09:29:38;;;;;;;14.93;11.50;;;;;;;21.85;44.16;96843.00;5035215;28;20052;-81
2022/04/15 09:32:15;;;;;;;14.23;11.00;;;;;;;22.36;42.05;96844.72;5022310;28;20037;-82
2022/04/15 09:35:04;;;;;;;13.05;10.45;;;;;;;23.15;38.78;96842.34;5031361;28;20053;-81
2022/04/15 09:37:39;;;;;;;13.98;10.20;;;;;;;22.44;40.92;96845.53;5051143;28;20028;-81
2022/04/15 09:40:12;;;;;;;12.50;8.55;;;;;;;21.61;41.52;96841.91;5040844;28;20029;-81
2022/04/15 09:42:47;;;;;;;10.52;8.20;;;;;;;22.05;41.38;96848.25;5034047;28;20044;-81
2022/04/15 09:45:16;;;;;;;11.88;7.38;;;;;;;21.89;43.05;96854.09;5015956;28;20041;-81
2022/04/15 09:47:43;;;;;;;11.27;7.45;;;;;;;20.58;45.50;96849.81;5034077;28;20098;-81
2022/04/15 09:50:36;;;;;;;10.13;7.35;;;;;;;19.78;46.35;96851.59;5038668;28;20395;-81
2022/04/15 09:53:12;;;;;;;12.77;8.27;;;;;;;18.59;50.87;96862.47;5042514;28;20048;-83
2022/04/15 09:55:42;;;;;;;10.95;7.78;;;;;;;18.52;52.55;96861.59;5033043;28;20041;-81
2022/04/15 09:58:13;;;;;;;11.07;8.45;;;;;;;18.05;53.80;96866.53;5025234;28;20549;-81
2022/04/15 10:00:41;;;;;;;10.10;7.90;;;;;;;18.21;53.87;96856.63;5022338;28;20029;-81
2022/04/15 10:03:09;;;;;;;11.35;8.57;;;;;;;18.20;53.84;96860.31;5043033;28;20601;-81
2022/04/15 10:05:38;;;;;;;13.00;8.82;;;;;;;19.10;51.07;96858.72;5045873;28;20029;-81
2022/04/15 10:08:05;;;;;;;12.00;7.22;;;;;;;20.32;48.41;96847.97;5048008;28;20033;-80
2022/04/15 10:10:32;;;;;;;13.57;7.85;;;;;;;22.01;43.89;96846.22;5026682;28;20037;-80
2022/04/15 10:13:05;;;;;;;15.88;12.50;;;;;;;22.73;40.88;96846.69;5030439;28;20048;-80
2022/04/15 10:15:32;;;;;;;9.10;6.65;;;;;;;22.36;40.75;96839.38;5033724;28;20112;-80
2022/04/15 10:18:00;;;;;;;10.73;6.93;;;;;;;22.09;41.55;96840.59;5023258;28;20540;-80
2022/04/15 10:20:26;;;;;;;9.60;6.97;;;;;;;21.46;42.08;96852.06;5028747;28;20029;-80
2022/04/15 10:22:53;;;;;;;10.70;6.53;;;;;;;20.94;43.64;96845.84;5031625;28;20027;-79
2022/04/15 10:25:19;;;;;;;9.90;6.50;;;;;;;19.95;45.38;96850.19;5035913;28;20033;-80
2022/04/15 10:27:45;;;;;;;9.65;6.35;;;;;;;18.85;48.46;96856.53;5014888;28;20555;-79
2022/04/15 10:30:15;;;;;;;9.43;6.72;;;;;;;18.83;49.94;96855.91;5024313;28;20258;-80
2022/04/15 10:32:48;;;;;;;9.82;7.50;;;;;;;18.67;49.65;96842.84;5015341;28;20057;-80
2022/04/15 10:35:22;;;;;;;8.18;6.28;;;;;;;19.06;48.58;96845.78;5016184;28;20516;-80
2022/04/15 10:37:55;;;;;;;10.68;6.82;;;;;;;19.10;48.38;96842.72;5045169;28;20048;-79
2022/04/15 10:40:31;;;;;;;12.05;8.65;;;;;;;20.37;44.62;96839.34;5029634;28;20029;-79
2022/04/15 10:43:21;;;;;;;10.38;7.93;;;;;;;21.35;42.57;96842.03;5043090;28;20032;-80
2022/04/15 10:45:48;;;;;;;10.75;8.52;;;;;;;22.39;40.00;96831.94;5011886;28;20030;-80
2022/04/15 10:48:28;;;;;;;10.98;8.27;;;;;;;22.54;37.08;96835.13;5049321;28;20398;-80
2022/04/15 10:50:54;;;;;;;9.48;7.03;;;;;;;22.42;37.13;96826.97;5028272;28;20437;-81
2022/04/15 10:53:26;;;;;;;8.30;5.70;;;;;;;23.40;35.66;96822.66;5031470;28;20025;-80
2022/04/15 10:55:56;;;;;;;16.00;13.70;;;;;;;21.13;40.57;96831.59;5027334;28;20029;-80
2022/04/15 10:58:22;;;;;;;12.40;9.30;;;;;;;20.73;41.54;96830.09;5037212;28;20029;-80
2022/04/15 11:01:19;;;;;;;10.57;6.80;;;;;;;19.31;44.75;96831.91;5018002;28;20029;-80
2022/04/15 11:03:56;;;;;;;9.63;6.88;;;;;;;19.66;44.48;96835.34;5025072;28;20036;-80
2022/04/15 11:06:27;;;;;;;8.82;6.53;;;;;;;20.84;42.40;96824.09;5011224;28;20038;-81
2022/04/15 11:08:52;;;;;;;10.40;6.65;;;;;;;21.78;41.04;96826.16;5019634;28;20038;-79
2022/04/15 11:11:33;;;;;;;8.85;7.47;;;;;;;21.58;39.89;96823.59;5005900;28;20923;-80
2022/04/15 11:14:01;;;;;;;9.48;7.22;;;;;;;21.97;38.17;96828.94;5049004;28;20040;-80
2022/04/15 11:16:41;;;;;;;10.07;7.43;;;;;;;21.44;39.72;96814.00;5013035;28;20063;-79
2022/04/15 11:19:08;;;;;;;8.73;6.10;;;;;;;23.08;38.63;96814.78;5029946;28;20032;-81
2022/04/15 11:21:37;;;;;;;10.05;8.02;;;;;;;21.94;38.96;96816.00;5054786;28;20025;-81
2022/04/15 11:24:08;;;;;;;9.35;6.78;;;;;;;21.75;40.60;96821.25;5010511;28;20079;-79
2022/04/15 11:26:36;;;;;;;8.35;6.65;;;;;;;21.97;38.13;96823.59;5014311;28;20033;-80
2022/04/15 11:29:04;;;;;;;9.77;7.47;;;;;;;22.14;37.21;96811.31;5014673;28;20433;-80